Time;durP1;ratioP1;P1;durP2;ratioP2;P2;SDS_P1;SDS_P2;PMS_P1;PMS_P2;Temp;Humidity;BMP_temperature;BMP_pressure;BME280_temperature;BME280_humidity;BME280_pressure;Samples;Min_cycle;Max_cycle;Signal;HPM_P1;HPM_P2
2023/03/26 00:01:57;;;;;;;2.95;2.00;;;;;;;13.63;58.56;98693.47;6134130;23;20006;-88
2023/03/26 00:04:24;;;;;;;2.75;1.88;;;;;;;13.65;58.35;98707.50;6134413;23;20405;-89
2023/03/26 00:06:50;;;;;;;2.45;1.88;;;;;;;13.52;57.85;98687.50;6134892;23;20060;-88
2023/03/26 00:09:16;;;;;;;3.45;2.00;;;;;;;13.44;58.81;98690.13;6109271;23;20009;-89
2023/03/26 00:11:42;;;;;;;2.53;1.90;;;;;;;13.38;59.15;98699.47;6109276;23;20024;-89
2023/03/26 00:14:12;;;;;;;3.90;2.25;;;;;;;13.26;59.69;98684.56;6134510;23;20400;-88
2023/03/26 00:16:38;;;;;;;3.20;2.42;;;;;;;13.08;60.37;98694.38;6133645;23;20001;-88
2023/03/26 00:19:03;;;;;;;6.15;2.30;;;;;;;13.09;60.06;98685.19;6108495;23;20005;-88
2023/03/26 00:21:30;;;;;;;5.15;2.08;;;;;;;13.27;60.63;98702.34;6109650;23;20004;-89
2023/03/26 00:23:58;;;;;;;7.90;2.58;;;;;;;13.23;61.07;98700.56;6133216;23;19998;-89
2023/03/26 00:26:25;;;;;;;4.18;2.72;;;;;;;13.17;60.56;98688.25;6109220;23;20021;-88
2023/03/26 00:28:51;;;;;;;3.45;2.25;;;;;;;13.21;60.46;98695.44;6109524;23;20001;-89
2023/03/26 00:31:17;;;;;;;4.07;2.40;;;;;;;13.21;59.88;98681.94;6109270;23;19997;-89
2023/03/26 00:33:44;;;;;;;3.15;2.20;;;;;;;13.27;60.20;98688.03;6109351;23;20471;-89
2023/03/26 00:36:13;;;;;;;3.80;2.30;;;;;;;13.31;59.30;98699.88;6132960;23;20330;-88
2023/03/26 00:38:39;;;;;;;3.97;2.40;;;;;;;13.42;59.84;98706.66;6085210;23;20014;-89
2023/03/26 00:41:06;;;;;;;5.03;2.17;;;;;;;13.34;59.08;98683.88;6108236;23;20002;-89
2023/03/26 00:43:35;;;;;;;3.33;2.30;;;;;;;13.47;59.25;98701.16;6109665;23;20008;-89
2023/03/26 00:46:01;;;;;;;3.63;2.10;;;;;;;13.45;58.93;98684.44;6109043;23;20068;-88
2023/03/26 00:48:30;;;;;;;5.85;2.35;;;;;;;13.51;59.01;98690.53;6109860;23;20001;-89
2023/03/26 00:50:56;;;;;;;2.50;1.90;;;;;;;13.44;58.66;98682.03;6133913;23;20001;-88
2023/03/26 00:53:22;;;;;;;3.58;2.20;;;;;;;13.43;59.08;98699.38;6108776;23;20455;-88
2023/03/26 00:55:47;;;;;;;3.00;2.17;;;;;;;13.47;59.04;98693.03;6107871;23;20007;-88
2023/03/26 00:58:14;;;;;;;2.55;1.95;;;;;;;13.32;59.60;98685.25;6108026;23;20037;-88
2023/03/26 01:00:56;;;;;;;2.70;2.05;;;;;;;13.37;59.17;98687.06;6109171;23;20009;-89
2023/03/26 01:03:21;;;;;;;;;;;;;;;13.43;59.54;98702.06;6111710;23;20017;-88
2023/03/26 01:05:51;;;;;;;4.15;2.10;;;;;;;13.29;59.75;98696.69;6133013;23;19911;-88
2023/03/26 01:08:32;;;;;;;5.03;2.33;;;;;;;13.29;60.17;98721.00;6110013;23;20025;-89
2023/03/26 01:11:05;;;;;;;2.40;2.05;;;;;;;13.26;60.44;98725.09;6134634;23;20005;-88
2023/03/26 01:13:34;;;;;;;2.38;2.17;;;;;;;13.22;60.94;98720.56;6087062;23;20009;-89
2023/03/26 01:16:00;;;;;;;4.00;2.35;;;;;;;13.26;60.21;98708.88;6110006;23;20001;-88
2023/03/26 01:18:32;;;;;;;2.38;1.75;;;;;;;13.28;60.42;98709.38;6132826;23;20104;-88
2023/03/26 01:21:03;;;;;;;4.03;2.20;;;;;;;13.22;60.83;98723.28;6109571;23;20001;-88
2023/03/26 01:23:58;;;;;;;2.35;1.77;;;;;;;13.21;60.74;98729.81;6132592;23;20007;-88
2023/03/26 01:26:52;;;;;;;3.58;2.03;;;;;;;13.16;60.97;98725.31;6130856;23;20012;-89
2023/03/26 01:29:38;;;;;;;2.33;1.85;;;;;;;13.07;61.43;98719.00;6086166;23;19998;-89
2023/03/26 01:32:33;;;;;;;3.00;1.95;;;;;;;13.05;62.34;98723.91;6136640;23;20075;-88
2023/03/26 01:35:17;;;;;;;2.95;1.90;;;;;;;13.14;61.23;98739.13;6094323;23;20024;-88
2023/03/26 01:37:57;;;;;;;4.60;1.80;;;;;;;13.00;61.37;98722.09;6131970;23;20052;-88
2023/03/26 01:40:22;;;;;;;2.85;1.75;;;;;;;13.00;61.87;98738.31;6133650;23;20048;-89
2023/03/26 01:42:57;;;;;;;3.17;1.70;;;;;;;12.87;62.30;98722.91;6157035;23;20001;-89
2023/03/26 01:45:25;;;;;;;2.13;1.40;;;;;;;12.88;61.95;98722.59;6132331;23;20001;-88
2023/03/26 01:47:53;;;;;;;2.72;1.60;;;;;;;12.80;62.38;98733.28;6084242;23;20451;-88
2023/03/26 01:50:21;;;;;;;3.55;1.70;;;;;;;12.58;63.20;98694.25;6109900;23;20037;-88
2023/03/26 01:52:47;;;;;;;2.50;1.88;;;;;;;12.74;63.41;98722.59;6109076;23;20080;-90
2023/03/26 01:55:13;;;;;;;2.03;1.70;;;;;;;12.61;63.79;98714.47;6133168;23;20010;-89
2023/03/26 01:58:17;;;;;;;3.50;1.75;;;;;;;12.73;64.26;98741.78;6107637;23;20017;-89
2023/03/26 02:00:50;;;;;;;2.33;1.63;;;;;;;12.64;64.56;98738.97;6132045;23;20321;-88
2023/03/26 02:03:25;;;;;;;2.63;1.30;;;;;;;12.64;65.01;98757.09;6084553;23;19998;-88
2023/03/26 02:06:10;;;;;;;1.85;1.45;;;;;;;12.59;64.63;98747.16;6157073;23;20017;-88
2023/03/26 02:08:46;;;;;;;2.45;1.60;;;;;;;12.52;64.40;98725.16;6132398;23;20076;-88
2023/03/26 02:11:13;;;;;;;1.73;1.30;;;;;;;12.77;64.56;98760.91;6084923;23;20002;-88
2023/03/26 02:13:39;;;;;;;3.03;1.60;;;;;;;12.73;64.51;98758.00;6084638;23;20079;-88
2023/03/26 02:16:12;;;;;;;2.58;1.67;;;;;;;12.66;64.93;98771.09;6084402;23;19997;-88
2023/03/26 02:18:39;;;;;;;1.80;1.40;;;;;;;12.45;65.64;98754.44;6133447;23;19997;-88
2023/03/26 02:21:20;;;;;;;2.40;1.60;;;;;;;12.39;65.32;98742.09;6133738;23;20048;-88
2023/03/26 02:23:48;;;;;;;2.38;1.40;;;;;;;12.65;64.87;98755.97;6085788;23;20417;-89
2023/03/26 02:26:17;;;;;;;1.90;1.23;;;;;;;12.45;64.82;98738.22;6132370;23;20036;-89
2023/03/26 02:28:42;;;;;;;1.63;1.20;;;;;;;12.49;64.31;98745.47;6131235;23;19997;-88
2023/03/26 02:31:12;;;;;;;1.42;1.15;;;;;;;12.48;63.95;98743.84;6107264;23;20326;-88
2023/03/26 02:33:38;;;;;;;2.33;1.40;;;;;;;12.57;63.94;98762.84;6109509;23;20441;-88
2023/03/26 02:36:04;;;;;;;2.55;1.27;;;;;;;12.50;63.69;98760.56;6107832;23;20005;-88
2023/03/26 02:38:37;;;;;;;2.53;1.40;;;;;;;12.58;63.37;98761.78;6084643;23;20018;-89
2023/03/26 02:41:03;;;;;;;1.73;1.27;;;;;;;12.62;63.46;98768.19;6110062;23;20063;-88
2023/03/26 02:43:29;;;;;;;1.90;1.30;;;;;;;12.58;63.48;98782.59;6107946;23;20002;-88
2023/03/26 02:45:55;;;;;;;1.55;1.10;;;;;;;12.59;62.84;98778.78;6156428;23;20040;-89
2023/03/26 02:48:20;;;;;;;2.25;1.10;;;;;;;12.68;62.45;98775.09;6082899;23;20001;-88
2023/03/26 02:50:48;;;;;;;1.20;0.93;;;;;;;12.53;63.55;98773.47;6108706;23;19997;-89
2023/03/26 02:53:17;;;;;;;2.13;1.27;;;;;;;12.63;64.15;98785.97;6110453;23;20080;-89
2023/03/26 02:55:43;;;;;;;2.20;1.20;;;;;;;12.51;63.26;98788.34;6107530;23;20008;-88
2023/03/26 02:58:11;;;;;;;1.63;1.20;;;;;;;12.60;63.79;98783.88;6108123;23;20084;-88
2023/03/26 03:00:37;;;;;;;1.10;1.00;;;;;;;12.53;63.49;98795.06;6131723;23;20013;-85
2023/03/26 03:03:05;;;;;;;1.38;1.00;;;;;;;12.54;63.36;98802.06;6106933;23;19998;-85
2023/03/26 03:05:36;;;;;;;1.80;1.20;;;;;;;12.53;63.31;98807.75;6106770;23;20009;-85
2023/03/26 03:08:04;;;;;;;;;;;;;;;12.51;63.88;98813.47;6133238;23;19998;-85
2023/03/26 03:10:31;;;;;;;1.83;1.20;;;;;;;12.47;62.73;98801.66;6132525;23;19908;-85
2023/03/26 03:12:57;;;;;;;1.85;1.05;;;;;;;12.31;63.33;98795.69;6132402;23;20009;-86
2023/03/26 03:15:23;;;;;;;1.92;1.15;;;;;;;12.34;62.80;98803.19;6108995;23;20009;-86
2023/03/26 03:17:50;;;;;;;0.90;0.80;;;;;;;12.33;63.40;98798.09;6134604;23;20066;-86
2023/03/26 03:20:16;;;;;;;1.50;1.05;;;;;;;12.37;63.22;98801.00;6109518;23;20028;-86
2023/03/26 03:22:42;;;;;;;1.27;0.90;;;;;;;12.30;63.45;98793.28;6109009;23;20024;-85
2023/03/26 03:25:13;;;;;;;1.48;1.00;;;;;;;12.45;63.03;98813.81;6132385;23;20002;-86
2023/03/26 03:27:40;;;;;;;1.30;0.90;;;;;;;12.49;62.80;98802.16;6133582;23;20002;-86
2023/03/26 03:30:06;;;;;;;2.08;1.20;;;;;;;12.48;62.53;98800.53;6108957;23;20420;-86
2023/03/26 03:32:32;;;;;;;1.20;1.00;;;;;;;12.55;62.47;98808.25;6108418;23;20010;-86
2023/03/26 03:34:58;;;;;;;1.40;1.00;;;;;;;12.47;62.22;98796.25;6132716;23;20091;-85
2023/03/26 03:37:23;;;;;;;1.90;1.10;;;;;;;12.53;61.96;98813.97;6133427;23;20009;-86
2023/03/26 03:39:52;;;;;;;1.30;1.00;;;;;;;12.43;62.42;98810.63;6109291;23;20005;-86
2023/03/26 03:42:17;;;;;;;1.90;1.20;;;;;;;12.40;62.71;98811.22;6109183;23;20006;-86
2023/03/26 03:44:43;;;;;;;2.83;1.25;;;;;;;12.40;63.24;98809.31;6108071;23;20008;-86
2023/03/26 03:47:12;;;;;;;1.58;1.20;;;;;;;12.39;62.76;98821.22;6133062;23;20029;-86
2023/03/26 03:49:42;;;;;;;1.50;1.17;;;;;;;12.43;62.57;98816.03;6110349;23;20080;-86
2023/03/26 03:52:08;;;;;;;1.90;0.98;;;;;;;12.40;62.35;98811.22;6108500;23;20040;-86
2023/03/26 03:54:33;;;;;;;2.22;0.90;;;;;;;12.31;62.61;98803.78;6132434;23;20092;-86
2023/03/26 03:57:00;;;;;;;1.90;1.15;;;;;;;12.18;62.33;98809.94;6107941;23;19990;-86
2023/03/26 03:59:27;;;;;;;1.95;0.98;;;;;;;12.25;62.14;98804.16;6132677;23;20005;-84
2023/03/26 04:01:52;;;;;;;2.05;0.90;;;;;;;12.17;62.30;98799.44;6157120;23;20429;-86
2023/03/26 04:04:20;;;;;;;2.03;1.17;;;;;;;12.22;62.30;98810.97;6107792;23;20016;-86
2023/03/26 04:06:46;;;;;;;1.48;1.00;;;;;;;12.16;61.98;98812.13;6133273;23;20005;-86
2023/03/26 04:09:11;;;;;;;2.25;1.17;;;;;;;12.08;62.35;98802.78;6108758;23;20020;-87
2023/03/26 04:11:37;;;;;;;1.55;1.10;;;;;;;12.06;62.24;98809.56;6108398;23;20345;-86
2023/03/26 04:14:05;;;;;;;1.38;1.10;;;;;;;12.01;62.36;98815.03;6133257;23;20336;-86
2023/03/26 04:16:31;;;;;;;1.42;1.17;;;;;;;11.98;62.52;98819.13;6132486;23;20100;-86
2023/03/26 04:18:57;;;;;;;6.93;1.45;;;;;;;11.97;62.89;98819.41;6108324;23;19998;-86
2023/03/26 04:21:23;;;;;;;1.75;1.20;;;;;;;12.03;62.32;98824.44;6108336;23;20447;-86
2023/03/26 04:23:49;;;;;;;1.80;1.20;;;;;;;11.79;62.99;98824.47;6108448;23;20002;-86
2023/03/26 04:26:16;;;;;;;3.13;1.30;;;;;;;11.88;62.80;98821.94;6132513;23;20006;-86
2023/03/26 04:28:46;;;;;;;5.05;1.65;;;;;;;12.01;62.78;98828.53;6085582;23;20006;-86
2023/03/26 04:31:17;;;;;;;2.45;1.50;;;;;;;11.78;62.49;98822.06;6132811;23;20002;-86
2023/03/26 04:33:47;;;;;;;2.10;1.20;;;;;;;11.92;61.69;98831.06;6084594;23;20021;-86
2023/03/26 04:36:15;;;;;;;1.63;1.10;;;;;;;11.86;60.78;98819.50;6132869;23;20057;-85
2023/03/26 04:38:43;;;;;;;1.65;1.23;;;;;;;11.72;60.57;98811.34;6108324;23;20014;-85
2023/03/26 04:41:12;;;;;;;2.20;1.13;;;;;;;11.70;60.27;98807.31;6085271;23;20011;-87
2023/03/26 04:43:41;;;;;;;2.40;1.40;;;;;;;11.62;60.95;98816.88;6108596;23;20080;-86
2023/03/26 04:46:09;;;;;;;3.38;1.40;;;;;;;11.51;60.80;98813.47;6109941;23;20063;-86
2023/03/26 04:48:37;;;;;;;4.18;1.58;;;;;;;11.47;61.09;98815.13;6132398;23;20011;-86
2023/03/26 04:51:05;;;;;;;3.10;1.30;;;;;;;11.44;61.03;98823.03;6132143;23;20005;-87
2023/03/26 04:53:31;;;;;;;5.35;1.83;;;;;;;11.29;61.60;98821.31;6108858;23;20084;-86
2023/03/26 04:56:00;;;;;;;2.72;1.55;;;;;;;11.27;61.35;98821.59;6107102;23;20001;-86
2023/03/26 04:58:31;;;;;;;2.53;1.40;;;;;;;11.39;61.50;98844.63;6108576;23;20001;-86
2023/03/26 05:01:00;;;;;;;3.88;1.63;;;;;;;11.30;61.70;98830.97;6133521;23;20001;-86
2023/03/26 05:03:30;;;;;;;3.38;1.52;;;;;;;11.40;61.27;98847.03;6157737;23;20421;-86
2023/03/26 05:05:58;;;;;;;3.33;1.60;;;;;;;11.41;60.91;98840.56;6110267;23;20009;-86
2023/03/26 05:08:25;;;;;;;3.55;1.77;;;;;;;11.32;61.54;98834.19;6132481;23;20383;-86
2023/03/26 05:10:51;;;;;;;4.10;1.70;;;;;;;11.36;60.97;98847.91;6131506;23;20005;-86
2023/03/26 05:13:18;;;;;;;2.78;1.50;;;;;;;11.42;60.94;98852.16;6130678;23;20096;-86
2023/03/26 05:15:43;;;;;;;2.50;1.70;;;;;;;11.38;61.11;98851.13;6108431;23;20005;-86
2023/03/26 05:18:09;;;;;;;2.42;1.83;;;;;;;11.45;60.46;98857.75;6108693;23;20055;-87
2023/03/26 05:20:37;;;;;;;2.20;1.63;;;;;;;11.46;59.72;98834.31;6108122;23;20439;-86
2023/03/26 05:23:03;;;;;;;3.28;1.80;;;;;;;11.65;59.00;98856.72;6132380;23;20348;-86
2023/03/26 05:25:28;;;;;;;3.20;1.60;;;;;;;11.72;58.34;98853.69;6107436;23;19998;-86
2023/03/26 05:27:54;;;;;;;5.40;1.48;;;;;;;11.90;57.70;98871.03;6107677;23;20029;-86
2023/03/26 05:30:20;;;;;;;2.33;1.83;;;;;;;11.92;57.35;98860.75;6107140;23;20463;-87
2023/03/26 05:32:50;;;;;;;4.40;1.45;;;;;;;11.91;57.23;98854.56;6131317;23;20068;-87
2023/03/26 05:35:17;;;;;;;2.92;1.80;;;;;;;12.01;57.13;98864.41;6108410;23;20009;-87
2023/03/26 05:37:44;;;;;;;4.18;1.67;;;;;;;12.23;56.40;98869.22;6133341;23;20011;-87
2023/03/26 05:40:15;;;;;;;3.03;1.80;;;;;;;12.35;56.05;98879.59;6108150;23;20009;-87
2023/03/26 05:42:41;;;;;;;3.03;1.83;;;;;;;12.34;55.72;98873.38;6155556;23;20063;-87
2023/03/26 05:45:10;;;;;;;1.88;1.50;;;;;;;12.37;55.50;98876.59;6107454;23;20009;-86
2023/03/26 05:47:38;;;;;;;2.08;1.42;;;;;;;12.31;55.88;98873.19;6131992;23;20001;-87
2023/03/26 05:50:05;;;;;;;3.25;1.95;;;;;;;12.36;55.49;98877.69;6157388;23;20002;-86
2023/03/26 05:52:31;;;;;;;2.67;1.73;;;;;;;12.52;54.75;98871.78;6107569;23;20004;-86
2023/03/26 05:54:59;;;;;;;3.42;1.60;;;;;;;12.47;54.60;98887.25;6130483;23;20005;-86
2023/03/26 05:57:28;;;;;;;2.83;1.70;;;;;;;12.59;54.79;98882.19;6131390;23;20384;-87
2023/03/26 05:59:55;;;;;;;3.13;1.90;;;;;;;12.62;54.05;98884.31;6106929;23;20361;-87
2023/03/26 06:02:22;;;;;;;4.47;2.42;;;;;;;12.68;54.50;98888.56;6107508;23;20067;-88
2023/03/26 06:04:49;;;;;;;3.85;2.13;;;;;;;12.63;54.03;98882.41;6155173;23;20009;-87
2023/03/26 06:07:15;;;;;;;2.85;1.70;;;;;;;12.64;53.88;98879.44;6132599;23;19997;-87
2023/03/26 06:09:42;;;;;;;2.85;1.90;;;;;;;12.60;53.51;98867.63;6107601;23;20002;-88
2023/03/26 06:12:08;;;;;;;2.47;1.83;;;;;;;12.59;54.32;98887.59;6131217;23;20001;-87
2023/03/26 06:14:35;;;;;;;5.05;1.83;;;;;;;12.57;53.49;98887.09;6083343;23;20029;-87
2023/03/26 06:17:03;;;;;;;2.75;1.92;;;;;;;12.45;54.35;98905.63;6131598;23;20480;-87
2023/03/26 06:19:28;;;;;;;2.80;1.67;;;;;;;12.46;53.68;98893.75;6132080;23;19997;-86
2023/03/26 06:21:54;;;;;;;2.38;1.75;;;;;;;12.52;53.28;98908.78;6107855;23;20009;-87
2023/03/26 06:24:19;;;;;;;2.67;1.88;;;;;;;12.47;53.38;98895.34;6106390;23;20451;-87
2023/03/26 06:26:46;;;;;;;2.75;1.80;;;;;;;12.46;53.28;98907.25;6106498;23;19993;-86
2023/03/26 06:29:13;;;;;;;2.33;1.60;;;;;;;12.47;52.85;98911.53;6131378;23;20004;-87
2023/03/26 06:31:40;;;;;;;6.25;1.80;;;;;;;12.40;53.35;98920.00;6107529;23;20388;-87
2023/03/26 06:34:06;;;;;;;2.63;1.83;;;;;;;12.58;53.24;98912.22;6131261;23;20014;-87
2023/03/26 06:36:32;;;;;;;2.50;1.77;;;;;;;12.53;53.02;98895.00;6131110;23;20412;-87
2023/03/26 06:39:00;;;;;;;2.05;1.50;;;;;;;12.63;52.69;98901.31;6132181;23;20005;-87
2023/03/26 06:41:25;;;;;;;2.63;1.80;;;;;;;12.65;52.51;98896.44;6132504;23;20084;-86
2023/03/26 06:43:52;;;;;;;2.58;1.60;;;;;;;12.76;52.35;98905.19;6107706;23;19993;-86
2023/03/26 06:46:20;;;;;;;5.03;1.85;;;;;;;12.91;51.44;98915.75;6157150;23;20002;-87
2023/03/26 06:48:47;;;;;;;2.15;1.42;;;;;;;12.92;51.17;98906.53;6107852;23;20432;-86
2023/03/26 06:51:12;;;;;;;3.78;1.95;;;;;;;12.90;50.66;98914.94;6107671;23;20005;-86
2023/03/26 06:53:38;;;;;;;1.70;1.38;;;;;;;13.01;50.50;98918.28;6106754;23;20424;-86
2023/03/26 06:56:03;;;;;;;3.05;1.63;;;;;;;12.91;50.44;98908.44;6106122;23;20014;-86
2023/03/26 06:58:30;;;;;;;4.32;2.20;;;;;;;12.92;51.06;98911.94;6107198;23;20107;-86
2023/03/26 07:00:56;;;;;;;4.65;2.20;;;;;;;13.09;50.98;98916.78;6132210;23;20002;-86
2023/03/26 07:03:22;;;;;;;5.10;1.73;;;;;;;13.25;50.01;98910.03;6106933;23;20487;-87
2023/03/26 07:05:47;;;;;;;2.08;1.08;;;;;;;13.40;48.73;98914.38;6106914;23;20096;-87
2023/03/26 07:08:14;;;;;;;2.58;1.67;;;;;;;13.47;48.16;98919.44;6106917;23;20001;-87
2023/03/26 07:10:41;;;;;;;2.75;1.55;;;;;;;13.68;47.83;98920.66;6157206;23;20025;-86
2023/03/26 07:13:07;;;;;;;1.83;1.30;;;;;;;13.71;47.60;98925.44;6131906;23;20088;-86
2023/03/26 07:15:32;;;;;;;4.70;1.35;;;;;;;13.72;46.88;98928.97;6106517;23;20001;-86
2023/03/26 07:17:58;;;;;;;2.05;1.40;;;;;;;13.62;47.48;98938.06;6106690;23;20085;-86
2023/03/26 07:20:25;;;;;;;3.20;1.38;;;;;;;13.72;47.36;98945.19;6107014;23;20005;-87
2023/03/26 07:22:50;;;;;;;3.33;1.55;;;;;;;13.64;47.13;98935.06;6107411;23;19997;-87
2023/03/26 07:25:18;;;;;;;2.67;1.55;;;;;;;13.60;47.31;98925.94;6107963;23;20028;-87
2023/03/26 07:27:45;;;;;;;2.10;1.48;;;;;;;13.62;47.04;98940.78;6108088;23;20036;-87
2023/03/26 07:30:30;;;;;;;2.95;1.60;;;;;;;13.53;47.28;98924.44;6132139;23;20008;-87
2023/03/26 07:33:02;;;;;;;2.42;1.40;;;;;;;13.71;47.42;98938.16;6133112;23;20017;-87
2023/03/26 07:35:36;;;;;;;3.22;1.42;;;;;;;13.75;47.04;98931.06;6132078;23;20006;-87
2023/03/26 07:38:23;;;;;;;1.60;1.20;;;;;;;13.97;46.20;98943.91;6107480;23;20002;-87
2023/03/26 07:41:15;;;;;;;1.90;1.30;;;;;;;14.00;45.63;98935.16;6132372;23;20012;-87
2023/03/26 07:44:05;;;;;;;2.50;1.73;;;;;;;13.96;45.79;98931.47;6098294;23;20049;-87
2023/03/26 07:46:32;;;;;;;2.67;1.40;;;;;;;13.86;46.20;98923.53;6155858;23;20001;-87
2023/03/26 07:49:00;;;;;;;2.65;1.52;;;;;;;14.01;45.39;98928.66;6106382;23;20007;-87
2023/03/26 07:51:27;;;;;;;2.72;1.63;;;;;;;13.94;45.52;98918.25;6131112;23;19997;-87
2023/03/26 07:53:52;;;;;;;1.95;1.33;;;;;;;14.24;44.90;98923.31;6082857;23;20029;-87
2023/03/26 07:56:20;;;;;;;5.70;1.52;;;;;;;14.24;45.14;98910.59;6108374;23;20345;-87
2023/03/26 07:58:57;;;;;;;2.22;1.45;;;;;;;14.35;45.02;98919.28;6109878;23;19998;-87
2023/03/26 08:01:29;;;;;;;2.72;1.50;;;;;;;14.42;45.27;98916.16;6157279;23;20092;-87
2023/03/26 08:03:58;;;;;;;;;;;;;;;14.61;45.28;98911.41;6157511;23;20048;-87
2023/03/26 08:06:37;;;;;;;1.67;1.27;;;;;;;14.43;45.37;98893.38;6132635;23;19908;-87
2023/03/26 08:09:22;;;;;;;1.80;1.27;;;;;;;14.28;44.13;98905.38;6132594;23;20009;-87
2023/03/26 08:11:47;;;;;;;3.25;1.30;;;;;;;14.27;44.49;98904.53;6133329;23;20012;-87
2023/03/26 08:14:34;;;;;;;3.75;1.50;;;;;;;14.13;44.74;98890.22;6157811;23;20001;-88
2023/03/26 08:17:01;;;;;;;4.15;1.30;;;;;;;14.21;45.04;98896.84;6136328;23;20005;-86
2023/03/26 08:19:39;;;;;;;1.77;1.02;;;;;;;14.21;43.95;98896.84;6132525;23;19989;-87
2023/03/26 08:22:10;;;;;;;1.67;1.15;;;;;;;14.31;44.13;98900.13;6133630;23;20002;-87
2023/03/26 08:24:42;;;;;;;1.48;1.08;;;;;;;14.26;43.00;98888.63;6157568;23;20012;-86
2023/03/26 08:27:36;;;;;;;1.83;1.00;;;;;;;14.34;42.98;98898.72;6156562;23;20361;-86
2023/03/26 08:30:08;;;;;;;3.80;1.20;;;;;;;14.32;43.51;98904.44;6109166;23;20009;-87
2023/03/26 08:32:34;;;;;;;2.03;0.90;;;;;;;14.23;43.36;98875.69;6157405;23;20420;-87
2023/03/26 08:35:00;;;;;;;1.48;0.90;;;;;;;14.37;42.35;98889.19;6106570;23;20032;-86
2023/03/26 08:37:28;;;;;;;1.30;1.00;;;;;;;14.63;42.13;98906.50;6109676;23;20005;-86
2023/03/26 08:39:55;;;;;;;1.52;1.10;;;;;;;14.68;41.90;98900.94;6108220;23;20008;-87
2023/03/26 08:42:59;;;;;;;1.48;1.00;;;;;;;14.84;41.25;98897.88;6132598;23;20068;-87
2023/03/26 08:45:41;;;;;;;1.90;1.20;;;;;;;15.01;41.33;98908.84;6136977;23;20052;-86
2023/03/26 08:48:39;;;;;;;1.35;1.00;;;;;;;15.04;40.78;98888.44;6133420;23;20002;-87
2023/03/26 08:51:22;;;;;;;1.40;0.90;;;;;;;15.19;41.54;98906.22;6135678;23;20061;-86
2023/03/26 08:53:54;;;;;;;2.50;1.20;;;;;;;15.07;41.98;98901.38;6156543;23;20010;-86
2023/03/26 08:57:07;;;;;;;1.40;1.00;;;;;;;14.97;42.36;98898.94;6156597;23;20010;-86
2023/03/26 08:59:55;;;;;;;2.55;0.90;;;;;;;14.94;42.70;98917.41;6097496;23;20018;-87
2023/03/26 09:02:36;;;;;;;1.30;1.08;;;;;;;14.78;43.23;98918.88;6097469;23;20353;-87
2023/03/26 09:05:39;;;;;;;2.17;1.00;;;;;;;14.95;42.82;98907.34;6096939;23;20362;-87
2023/03/26 09:08:28;;;;;;;1.85;1.00;;;;;;;14.97;42.10;98896.22;6097109;23;20450;-86
2023/03/26 09:11:31;;;;;;;1.40;1.10;;;;;;;15.14;41.18;98902.53;6072287;23;20013;-86
2023/03/26 09:14:03;;;;;;;2.15;1.00;;;;;;;15.19;40.45;98906.22;6097946;23;20355;-87
2023/03/26 09:16:41;;;;;;;1.60;0.90;;;;;;;15.33;39.29;98905.00;6097404;23;20002;-86
2023/03/26 09:19:29;;;;;;;1.55;1.00;;;;;;;15.41;38.72;98903.47;6097232;23;20009;-86
2023/03/26 09:22:23;;;;;;;1.55;1.05;;;;;;;15.45;39.22;98906.38;6097491;23;20003;-88
2023/03/26 09:25:16;;;;;;;1.35;0.95;;;;;;;15.42;39.71;98915.94;6097758;23;20434;-85
2023/03/26 09:27:56;;;;;;;1.55;0.82;;;;;;;15.50;38.01;98917.91;6096420;23;20307;-86
2023/03/26 09:30:44;;;;;;;1.33;0.90;;;;;;;15.43;39.37;98905.88;6122616;23;20076;-86
2023/03/26 09:33:19;;;;;;;1.17;1.00;;;;;;;15.50;37.96;98915.19;6156159;23;20096;-86
2023/03/26 09:35:51;;;;;;;1.35;1.02;;;;;;;15.53;37.55;98911.81;6156475;23;20072;-86
2023/03/26 09:38:41;;;;;;;3.20;1.10;;;;;;;15.64;38.58;98898.78;6157358;23;20001;-86
2023/03/26 09:41:14;;;;;;;2.22;1.00;;;;;;;15.73;38.56;98888.78;6156440;23;20002;-87
2023/03/26 09:44:08;;;;;;;2.25;1.67;;;;;;;15.69;37.94;98898.66;6131476;23;20409;-86
2023/03/26 09:46:51;;;;;;;4.93;1.05;;;;;;;15.75;37.35;98896.63;6130969;23;20009;-87
2023/03/26 09:49:41;;;;;;;4.07;0.98;;;;;;;15.84;37.42;98905.59;6130820;23;20348;-87
2023/03/26 09:53:02;;;;;;;2.60;1.10;;;;;;;15.85;36.91;98887.38;6158103;23;20064;-87
2023/03/26 09:55:43;;;;;;;2.47;1.13;;;;;;;15.93;38.18;98906.41;6102031;23;20020;-87
2023/03/26 09:58:14;;;;;;;;;;;;;;;15.92;37.64;98888.53;6078203;23;20484;-87
2023/03/26 10:01:04;;;;;;;1.73;0.80;;;;;;;15.87;37.80;98894.09;6126228;23;19909;-87
2023/03/26 10:04:06;;;;;;;2.03;0.95;;;;;;;15.77;37.98;98878.09;6101309;23;20013;-87
2023/03/26 10:07:00;;;;;;;1.95;0.65;;;;;;;16.01;36.29;98879.59;6101933;23;20433;-87
2023/03/26 10:09:40;;;;;;;2.42;0.80;;;;;;;16.09;36.96;98887.75;6077131;23;20005;-87
2023/03/26 10:12:09;;;;;;;1.13;0.85;;;;;;;16.13;35.29;98877.84;6102485;23;20002;-87
2023/03/26 10:14:41;;;;;;;2.50;0.77;;;;;;;16.24;35.32;98859.34;6102040;23;20427;-86
2023/03/26 10:18:15;;;;;;;1.20;0.90;;;;;;;16.31;34.96;98881.41;6102689;23;20008;-87
2023/03/26 10:21:06;;;;;;;1.30;0.70;;;;;;;16.39;34.27;98862.69;6011028;23;20011;-86
2023/03/26 10:23:55;;;;;;;1.58;0.75;;;;;;;16.36;34.14;98859.50;5979654;23;20006;-87
2023/03/26 10:26:44;;;;;;;2.15;0.70;;;;;;;16.41;32.91;98853.09;6020212;23;20010;-86
2023/03/26 10:30:09;;;;;;;1.15;0.70;;;;;;;16.23;32.49;98837.91;6046631;23;20017;-87
2023/03/26 10:33:02;;;;;;;1.05;0.68;;;;;;;16.46;32.17;98852.16;6054377;23;20010;-87
2023/03/26 10:36:12;;;;;;;3.50;0.70;;;;;;;16.49;31.65;98837.91;6038778;23;20435;-87
2023/03/26 10:39:08;;;;;;;0.95;0.60;;;;;;;16.50;30.10;98834.09;5927400;24;20017;-87
2023/03/26 10:42:15;;;;;;;3.58;0.60;;;;;;;16.59;29.38;98834.88;5927577;24;20001;-87
2023/03/26 10:45:04;;;;;;;2.35;0.60;;;;;;;16.71;31.12;98837.75;6037344;23;20074;-87
2023/03/26 10:47:39;;;;;;;1.15;0.68;;;;;;;16.79;31.02;98836.13;6039394;23;20121;-87
2023/03/26 10:50:14;;;;;;;1.92;0.45;;;;;;;16.85;30.72;98836.78;6038582;23;20479;-86
2023/03/26 10:52:41;;;;;;;0.60;0.50;;;;;;;16.71;31.33;98826.06;6094482;23;20005;-87
2023/03/26 10:55:21;;;;;;;0.90;0.60;;;;;;;16.83;30.66;98825.44;6127237;23;20006;-86
2023/03/26 10:57:49;;;;;;;0.57;0.57;;;;;;;16.85;29.57;98831.34;6078737;23;20067;-88
2023/03/26 11:00:24;;;;;;;0.40;0.40;;;;;;;16.73;28.41;98816.47;6103164;23;19998;-87
2023/03/26 11:03:29;;;;;;;0.80;0.60;;;;;;;16.66;29.35;98812.63;6056343;23;20095;-87
2023/03/26 11:06:13;;;;;;;1.33;0.60;;;;;;;16.72;29.43;98812.13;6104899;23;20009;-87
2023/03/26 11:08:52;;;;;;;1.08;0.70;;;;;;;16.82;29.17;98802.88;6125933;23;20135;-87
2023/03/26 11:12:05;;;;;;;0.55;0.45;;;;;;;16.86;28.92;98803.84;6125913;23;20017;-87
2023/03/26 11:14:33;;;;;;;2.42;0.50;;;;;;;16.87;27.85;98804.63;5954923;24;20416;-87
2023/03/26 11:17:04;;;;;;;0.68;0.60;;;;;;;16.86;28.00;98797.59;6068922;23;20006;-87
2023/03/26 11:19:41;;;;;;;1.10;0.47;;;;;;;16.77;28.26;98776.63;6127784;23;20012;-86
2023/03/26 11:22:49;;;;;;;0.40;0.40;;;;;;;16.88;28.52;98788.00;6080436;23;20081;-87
2023/03/26 11:25:20;;;;;;;0.60;0.50;;;;;;;16.98;27.94;98778.69;6128556;23;20012;-88
2023/03/26 11:28:08;;;;;;;0.65;0.60;;;;;;;16.92;27.71;98769.13;6126464;23;20037;-87
2023/03/26 11:31:10;;;;;;;0.45;0.45;;;;;;;17.06;27.98;98777.84;6108437;23;20089;-87
2023/03/26 11:33:43;;;;;;;2.15;0.60;;;;;;;17.12;27.06;98762.97;6140216;23;20100;-87
2023/03/26 11:36:12;;;;;;;0.60;0.50;;;;;;;17.16;25.72;98742.13;6109133;23;20009;-87
2023/03/26 11:38:45;;;;;;;0.40;0.40;;;;;;;17.08;25.44;98755.75;6156021;23;20009;-87
2023/03/26 11:41:19;;;;;;;2.35;0.65;;;;;;;17.10;26.09;98751.59;6109083;23;19997;-87
2023/03/26 11:43:51;;;;;;;3.10;0.55;;;;;;;17.24;26.85;98775.84;6135248;23;20060;-88
2023/03/26 11:46:17;;;;;;;1.90;0.60;;;;;;;17.29;26.34;98764.00;6109664;23;20013;-88
2023/03/26 11:48:49;;;;;;;0.95;0.40;;;;;;;17.17;26.61;98751.88;6086623;23;20040;-90
2023/03/26 11:51:27;;;;;;;0.60;0.47;;;;;;;17.10;26.70;98748.06;6086426;23;20005;-88
2023/03/26 11:53:56;;;;;;;1.75;0.50;;;;;;;17.12;26.65;98752.06;6159969;23;20007;-87
2023/03/26 11:56:48;;;;;;;0.60;0.50;;;;;;;17.01;27.59;98748.09;6133592;23;20009;-88
2023/03/26 11:59:42;;;;;;;0.40;0.40;;;;;;;17.04;27.92;98730.34;6158112;23;20001;-87
2023/03/26 12:02:08;;;;;;;1.90;0.60;;;;;;;17.16;27.81;98744.03;6110490;23;20001;-87
2023/03/26 12:04:39;;;;;;;0.93;0.60;;;;;;;17.23;27.30;98735.38;6158367;23;20004;-87